Dabney, Arkansas
Current Conditions -  °F | °C
As of 5:53 PM on Wednesday 22 Oct 2014 (Local Time) from KRUE Reporting Station
Clear Clear  
Wind Chill: 68°   Ceiling: Unl
Heat Index: 68°   Visibility: 10mi
Dew Point: 51°   Wind: 3mph
Humidity: 55%   Direction: NA
Pressure: 30.14"   Gusts: NA
Location:  35.227°N, 92.6879°W
Report Text: KRUE 222253Z AUTO VRB03KT 10SM CLR 20/11 A3014 RMK AO2 SLP202 T02000106 $
Loading
Personal Weather Stations






























Interactive Weather Map
Tropical Storm Tracking
New forecast layout! Learn more

10-Day Weather Forecast

Advertisements
Track Severe Weather on mobile